Data for 02/20/2015

Time Sea-Level Adjusted Pressure Absolute Pressure Temperature Relative Humidity Dew Point   
(mb) (inHg) (mb) (inHg) (C) (F) (%) (C) (F)
00:05 1016 30 845 24.95 0.7 33.3 92 -0.5 31.2
00:10 1016 30 845 24.95 0.7 33.3 91 -0.5 31
00:15 1016 30 845 24.95 0.7 33.3 91 -0.6 30.9
00:20 1016 30 845 24.95 0.7 33.3 91 -0.6 31
00:25 1016 30 845 24.95 0.8 33.4 90 -0.6 30.9
00:30 1016 30 845 24.95 0.7 33.3 91 -0.6 31
00:35 1015 29.97 845 24.95 0.7 33.3 91 -0.6 30.9
00:40 1015 29.97 845 24.95 0.7 33.3 91 -0.6 30.9
00:45 1015 29.97 845 24.95 0.7 33.3 91 -0.6 30.9
00:50 1015 29.97 845 24.95 0.7 33.3 91 -0.6 31
00:55 1015 29.97 845 24.95 0.8 33.4 91 -0.5 31
01:00 1015 29.97 845 24.95 0.8 33.5 91 -0.5 31
01:05 1015 29.97 845 24.95 0.8 33.5 91 -0.5 31
01:10 1015 29.97 845 24.95 0.8 33.5 91 -0.5 31.1
01:15 1015 29.97 845 24.95 0.9 33.6 91 -0.5 31.1
01:20 1015 29.97 845 24.95 0.9 33.6 91 -0.5 31.1
01:25 1015 29.97 845 24.95 0.9 33.6 90 -0.5 31.1
01:30 1015 29.97 845 24.95 0.9 33.7 91 -0.4 31.2
01:35 1015 29.97 845 24.95 1 33.8 90 -0.4 31.3
01:40 1015 29.97 845 24.95 1 33.8 90 -0.5 31.2
01:45 1015 29.97 845 24.95 1.1 33.9 90 -0.5 31.2
01:50 1015 29.97 845 24.95 1.1 34 90 -0.4 31.2
01:55 1015 29.97 845 24.95 1.2 34.1 89 -0.4 31.3
02:00 1015 29.97 845 24.95 1.1 34 90 -0.3 31.4
02:05 1015 29.97 845 24.95 0.9 33.6 91 -0.5 31.2
02:10 1015 29.97 845 24.95 0.7 33.3 91 -0.5 31.1
02:15 1015 29.97 845 24.95 0.7 33.3 92 -0.5 31.1
02:20 1015 29.97 845 24.95 0.6 33.1 92 -0.6 31
02:25 1015 29.97 845 24.95 0.6 33 92 -0.6 30.9
02:30 1015 29.97 845 24.95 0.5 33 92 -0.6 30.9
02:35 1015 29.97 845 24.95 0.5 32.9 92 -0.6 30.9
02:40 1015 29.97 845 24.95 0.5 32.8 93 -0.6 30.9
02:45 1015 29.97 845 24.95 0.4 32.8 93 -0.6 30.9
02:50 1015 29.97 845 24.95 0.4 32.8 93 -0.6 30.9
02:55 1015 29.97 845 24.95 0.4 32.8 93 -0.6 30.9
03:00 1015 29.97 845 24.95 0.4 32.7 93 -0.6 30.9
03:05 1015 29.97 845 24.95 0.5 32.8 93 -0.6 30.9
03:10 1015 29.97 845 24.95 0.4 32.8 93 -0.6 31
03:15 1015 29.97 845 24.95 0.5 32.9 93 -0.6 31
03:20 1015 29.97 845 24.95 0.5 32.8 93 -0.6 30.9
03:25 1015 29.97 845 24.95 0.4 32.7 93 -0.7 30.8
03:30 1015 29.97 845 24.95 0.4 32.7 93 -0.7 30.8
03:35 1015 29.97 845 24.95 0.4 32.7 93 -0.7 30.8
03:40 1015 29.97 845 24.95 0.4 32.7 93 -0.6 30.8
03:45 1015 29.97 845 24.95 0.4 32.7 93 -0.7 30.8
03:50 1015 29.97 845 24.95 0.4 32.7 93 -0.7 30.8
03:55 1015 29.97 845 24.95 0.3 32.6 93 -0.7 30.8
04:00 1015 29.97 845 24.95 0.3 32.6 93 -0.7 30.8
04:05 1015 29.97 845 24.95 0.3 32.6 93 -0.7 30.7
04:10 1015 29.97 845 24.95 0.3 32.5 93 -0.7 30.7
04:15 1015 29.97 845 24.95 0.2 32.4 93 -0.8 30.6
04:20 1015 29.97 845 24.95 0.2 32.3 93 -0.8 30.6
04:25 1015 29.97 845 24.95 0.1 32.2 93 -0.8 30.5
04:30 1015 29.97 844 24.92 0.1 32.2 94 -0.8 30.6
04:35 1015 29.97 844 24.92 0.1 32.2 94 -0.8 30.5
04:40 1015 29.97 844 24.92 0.1 32.1 94 -0.9 30.5
04:45 1015 29.97 845 24.95 -0 32 94 -0.9 30.4
04:50 1015 29.97 845 24.95 0 32 94 -0.9 30.5
04:55 1015 29.97 845 24.95 -0 31.9 94 -0.9 30.4
05:00 1015 29.97 845 24.95 -0.1 31.9 94 -0.9 30.4
05:05 1015 29.97 845 24.95 -0.1 31.8 94 -0.9 30.3
05:10 1015 29.97 845 24.95 -0.1 31.7 94 -1 30.2
05:15 1015 29.97 845 24.95 -0.2 31.7 94 -1 30.2
05:20 1015 29.97 845 24.95 -0.2 31.6 94 -1 30.1
05:25 1015 29.97 845 24.95 -0.3 31.5 94 -1.1 30.1
05:30 1015 29.97 845 24.95 -0.3 31.4 94 -1.1 30
05:35 1016 30 845 24.95 -0.3 31.4 95 -1.1 30.1
05:40 1016 30 845 24.95 -0.3 31.4 95 -1.1 30.1
05:45 1016 30 845 24.95 -0.4 31.4 95 -1.1 30
05:50 1016 30 845 24.95 -0.4 31.3 95 -1.1 29.9
05:55 1016 30 845 24.95 -0.4 31.3 95 -1.2 29.9
06:00 1016 30 845 24.95 -0.4 31.3 94 -1.2 29.9
06:05 1016 30 845 24.95 -0.4 31.3 94 -1.2 29.8
06:10 1016 30 845 24.95 -0.4 31.3 93 -1.3 29.6
06:15 1016 30 845 24.95 -0.3 31.4 93 -1.4 29.5
06:20 1016 30 845 24.95 -0.3 31.4 92 -1.4 29.4
06:25 1016 30 845 24.95 -0.4 31.3 92 -1.5 29.3
06:30 1016 30 845 24.95 -0.4 31.3 92 -1.5 29.3
06:35 1016 30 845 24.95 -0.3 31.4 91 -1.6 29.2
06:40 1016 30 845 24.95 -0.3 31.4 91 -1.6 29.1
06:45 1016 30 845 24.95 -0.2 31.6 91 -1.6 29.1
06:50 1016 30 845 24.95 -0.1 31.7 90 -1.7 29
06:55 1016 30 845 24.95 -0 31.9 89 -1.6 29.1
07:00 1016 30 845 24.95 -0 31.9 89 -1.6 29.1
07:05 1016 30 845 24.95 0 32 88 -1.7 28.9
07:10 1016 30 845 24.95 0.1 32.2 88 -1.7 28.9
07:15 1016 30 845 24.95 0.1 32.2 88 -1.7 29
07:20 1016 30 845 24.95 0.1 32.1 88 -1.8 28.8
07:25 1016 30 845 24.95 0.1 32.2 87 -1.8 28.7
07:30 1016 30 845 24.95 0.1 32.2 87 -1.8 28.7
07:35 1016 30 845 24.95 0.1 32.2 86 -1.9 28.6
07:40 1016 30 845 24.95 0.1 32.2 86 -2 28.4
07:45 1016 30 845 24.95 0.3 32.5 87 -1.7 28.9
07:50 1016 30 845 24.95 0.3 32.6 87 -1.6 29.1
07:55 1016 30 845 24.95 0.2 32.4 87 -1.6 29.1
08:00 1016 30 845 24.95 0.2 32.4 87 -1.6 29.1
08:05 1016 30 845 24.95 0.1 32.2 89 -1.5 29.2
08:10 1016 30 845 24.95 0.1 32.1 89 -1.5 29.2
08:15 1016 30 845 24.95 -0 32 90 -1.5 29.3
08:20 1016 30 845 24.95 -0.1 31.9 90 -1.5 29.3
08:25 1016 30 845 24.95 -0.1 31.8 91 -1.4 29.4
08:30 1016 30 845 24.95 -0.2 31.7 91 -1.5 29.3
08:35 1016 30 845 24.95 -0.3 31.5 92 -1.3 29.6
08:40 1016 30 845 24.95 -0.2 31.7 92 -1.3 29.7
08:45 1016 30 845 24.95 -0.2 31.7 92 -1.3 29.6
08:50 1016 30 846 24.98 -0.1 31.8 92 -1.3 29.6
08:55 1016 30 846 24.98 -0.1 31.8 92 -1.3 29.6
09:00 1016 30 846 24.98 -0 31.9 91 -1.3 29.6
09:05 1017 30.03 846 24.98 0 32.1 91 -1.3 29.6
09:10 1017 30.03 846 24.98 0 32.1 90 -1.4 29.5
09:15 1017 30.03 846 24.98 0.1 32.2 90 -1.3 29.6
09:20 1017 30.03 846 24.98 0.1 32.1 90 -1.4 29.6
09:25 1017 30.03 846 24.98 0.1 32.1 90 -1.4 29.5
09:30 1017 30.03 846 24.98 0.1 32.2 90 -1.4 29.6
09:35 1017 30.03 846 24.98 0.2 32.3 90 -1.3 29.6
09:40 1017 30.03 846 24.98 0.2 32.3 89 -1.4 29.4
09:45 1017 30.03 846 24.98 0.2 32.3 89 -1.5 29.3
09:50 1017 30.03 846 24.98 0.3 32.5 88 -1.4 29.5
09:55 1017 30.03 846 24.98 0.3 32.6 89 -1.3 29.7
10:00 1017 30.03 846 24.98 0.3 32.5 90 -1.2 29.8
10:05 1017 30.03 846 24.98 0.3 32.5 90 -1.3 29.7
10:10 1017 30.03 846 24.98 0.2 32.4 89 -1.4 29.5
10:15 1017 30.03 846 24.98 0.5 32.9 86 -1.5 29.3
10:20 1017 30.03 846 24.98 0.7 33.3 85 -1.6 29.2
10:25 1017 30.03 846 24.98 0.9 33.7 86 -1.1 29.9
10:30 1017 30.03 846 24.98 1.1 34 81 -1.8 28.8
10:35 1017 30.03 846 24.98 1.5 34.6 83 -1.2 29.9
10:40 1017 30.03 846 24.98 1.9 35.4 78 -1.5 29.3
10:45 1017 30.03 846 24.98 2 35.5 78 -1.4 29.4
10:50 1017 30.03 846 24.98 2 35.5 76 -1.8 28.8
10:55 1017 30.03 846 24.98 2 35.6 73 -2.3 27.8
11:00 1017 30.03 846 24.98 2.3 36.1 72 -2.3 27.8
11:05 1017 30.03 846 24.98 2.2 35.9 71 -2.6 27.4
11:10 1017 30.03 846 24.98 2.2 36 72 -2.4 27.7
11:15 1017 30.03 846 24.98 2.4 36.3 68 -2.9 26.8
11:20 1017 30.03 846 24.98 2.8 37 69 -2.3 27.9
11:25 1017 30.03 846 24.98 2.8 37.1 69 -2.3 27.9
11:30 1017 30.03 846 24.98 3 37.5 65 -2.9 26.8
11:35 1017 30.03 846 24.98 3 37.3 66 -2.9 26.9
11:40 1017 30.03 846 24.98 2.9 37.2 66 -2.8 27
11:45 1017 30.03 846 24.98 3 37.4 66 -2.7 27.1
11:50 1017 30.03 846 24.98 3.2 37.7 64 -3 26.7
11:55 1017 30.03 846 24.98 3.3 37.9 64 -2.9 26.7
12:00 1017 30.03 846 24.98 3.3 38 64 -2.8 26.9
12:05 1017 30.03 846 24.98 3.2 37.8 63 -3.1 26.5
12:10 1017 30.03 846 24.98 3.1 37.6 62 -3.4 25.8
12:15 1017 30.03 846 24.98 3.3 37.9 61 -3.6 25.5
12:20 1017 30.03 846 24.98 3.8 38.9 62 -2.8 27
12:25 1017 30.03 846 24.98 4.3 39.7 57 -3.4 25.8
12:30 1017 30.03 846 24.98 4.5 40.1 58 -3.1 26.4
12:35 1017 30.03 846 24.98 4.2 39.5 56 -3.7 25.3
12:40 1017 30.03 846 24.98 4.1 39.4 56 -3.8 25.1
12:45 1017 30.03 846 24.98 3.7 38.6 59 -3.5 25.7
12:50 1017 30.03 846 24.98 3.5 38.2 59 -3.8 25.2
12:55 1017 30.03 846 24.98 3.4 38.1 59 -3.8 25.1
13:00 1017 30.03 846 24.98 3.4 38.1 57 -4.2 24.4
13:05 1017 30.03 846 24.98 3.9 38.9 56 -4.1 24.7
13:10 1017 30.03 846 24.98 4.3 39.8 54 -4 24.7
13:15 1017 30.03 846 24.98 4.5 40.1 55 -3.9 25
13:20 1017 30.03 846 24.98 4.4 39.9 54 -4.1 24.6
13:25 1017 30.03 846 24.98 4.1 39.3 55 -4.3 24.3
13:30 1017 30.03 846 24.98 3.9 39.1 56 -4.1 24.7
13:35 1017 30.03 846 24.98 3.9 39 56 -4.1 24.7
13:40 1017 30.03 846 24.98 4.1 39.4 55 -4 24.8
13:45 1017 30.03 846 24.98 4.4 39.9 52 -4.5 24
13:50 1017 30.03 846 24.98 5 40.9 56 -3.1 26.5
13:55 1016 30 846 24.98 5.6 42.1 48 -4.6 23.7
14:00 1016 30 846 24.98 5.2 41.3 48 -4.9 23.1
14:05 1016 30 845 24.95 4.6 40.3 50 -4.8 23.3
14:10 1016 30 845 24.95 4.3 39.8 51 -5 23
14:15 1016 30 845 24.95 4.2 39.5 52 -4.9 23.3
14:20 1016 30 845 24.95 4.2 39.6 54 -4.2 24.4
14:25 1016 30 845 24.95 4.3 39.7 53 -4.5 23.9
14:30 1016 30 845 24.95 4.2 39.5 53 -4.7 23.5
14:35 1016 30 845 24.95 4.4 39.9 51 -5 23
14:40 1016 30 845 24.95 4.6 40.3 51 -4.8 23.4
14:45 1016 30 845 24.95 4.7 40.4 50 -5 23.1
14:50 1016 30 845 24.95 4.5 40.1 51 -4.8 23.4
14:55 1016 30 845 24.95 4.2 39.5 54 -4.3 24.3
15:00 1016 30 845 24.95 3.6 38.5 55 -4.5 23.8
15:05 1016 30 845 24.95 3.7 38.6 54 -4.7 23.5
15:10 1016 30 845 24.95 4.1 39.5 52 -4.7 23.5
15:15 1016 30 845 24.95 4.9 40.8 50 -4.8 23.3
15:20 1016 30 845 24.95 4.9 40.7 48 -5.3 22.5
15:25 1016 30 845 24.95 4.7 40.4 48 -5.5 22.1
15:30 1016 30 845 24.95 4.9 40.7 48 -5.2 22.6
15:35 1016 30 845 24.95 5.5 41.9 44 -5.7 21.7
15:40 1016 30 845 24.95 5.6 42.1 45 -5.3 22.4
15:45 1016 30 845 24.95 4.8 40.7 59 -2.6 27.4
15:50 1016 30 845 24.95 3.4 38.1 73 -0.9 30.3
15:55 1016 30 845 24.95 1.5 34.6 78 -2 28.3
16:00 1016 30 845 24.95 1.2 34.1 74 -3 26.5
16:05 1016 30 845 24.95 1.4 34.5 70 -3.5 25.7
16:10 1016 30 845 24.95 2 35.6 64 -4.2 24.5
16:15 1016 30 845 24.95 2.9 37.2 57 -4.8 23.3
16:20 1016 30 845 24.95 3.5 38.2 55 -4.7 23.5
16:25 1016 30 845 24.95 3.9 39 52 -5.1 22.8
16:30 1016 30 845 24.95 4.5 40.1 47 -5.7 21.7
16:35 1016 30 845 24.95 4.6 40.3 47 -5.8 21.6
16:40 1016 30 845 24.95 4.4 40 47 -5.8 21.5
16:45 1016 30 845 24.95 4.5 40.1 48 -5.6 21.9
16:50 1016 30 845 24.95 4.4 39.9 49 -5.4 22.3
16:55 1016 30 845 24.95 4.3 39.8 49 -5.4 22.3
17:00 1016 30 845 24.95 4.3 39.7 50 -5.2 22.7
17:05 1016 30 845 24.95 4.4 39.9 48 -5.6 21.9
17:10 1016 30 845 24.95 4.5 40.1 48 -5.6 22
17:15 1016 30 845 24.95 4.6 40.3 47 -5.6 21.8
17:20 1016 30 845 24.95 4.3 39.7 49 -5.5 22.1
17:25 1016 30 845 24.95 4.3 39.7 48 -5.8 21.5
17:30 1016 30 845 24.95 4.1 39.5 50 -5.3 22.5
17:35 1016 30 845 24.95 3.5 38.2 64 -2.7 27.1
17:40 1016 30 845 24.95 2.5 36.4 70 -2.5 27.5
17:45 1016 30 845 24.95 2.3 36.1 71 -2.4 27.6
17:50 1016 30 845 24.95 2.4 36.4 69 -2.7 27.2
17:55 1016 30 845 24.95 2.5 36.5 68 -2.7 27.1
18:00 1016 30 845 24.95 2.5 36.5 68 -2.9 26.8
18:05 1016 30 845 24.95 2.5 36.5 67 -3.1 26.5
18:10 1016 30 845 24.95 2.4 36.4 67 -3.1 26.4
18:15 1016 30 845 24.95 2.6 36.7 57 -5 23
18:20 1016 30 845 24.95 2.8 37.1 58 -4.6 23.7
18:25 1016 30 845 24.95 2.8 37 60 -4.2 24.4
18:30 1016 30 845 24.95 2.8 37.1 61 -4 24.8
18:35 1016 30 845 24.95 2.7 36.8 62 -3.9 25
18:40 1016 30 845 24.95 2.5 36.5 66 -3.2 26.2
18:45 1016 30 845 24.95 2.1 35.7 66 -3.6 25.4
18:50 1016 30 845 24.95 1.9 35.4 69 -3.2 26.3
18:55 1016 30 845 24.95 1.8 35.2 70 -3.1 26.4
19:00 1016 30 845 24.95 1.7 35 70 -3.2 26.3
19:05 1016 30 845 24.95 1.7 35.1 70 -3.2 26.2
19:10 1016 30 845 24.95 1.8 35.3 70 -3.1 26.5
19:15 1016 30 845 24.95 1.9 35.4 70 -3 26.6
19:20 1016 30 845 24.95 1.8 35.2 69 -3.3 26.1
19:25 1016 30 845 24.95 1.7 35.1 68 -3.5 25.7
19:30 1016 30 845 24.95 1.7 35 69 -3.4 25.8
19:35 1016 30 845 24.95 1.7 35 68 -3.6 25.5
19:40 1016 30 845 24.95 1.8 35.2 66 -3.8 25.1
19:45 1016 30 845 24.95 1.8 35.3 67 -3.7 25.4
19:50 1016 30 845 24.95 1.9 35.5 62 -4.5 23.9
19:55 1016 30 845 24.95 2 35.7 61 -4.6 23.7
20:00 1016 30 845 24.95 2 35.7 64 -4.1 24.7
20:05 1016 30 845 24.95 2.1 35.7 64 -4 24.9
20:10 1016 30 845 24.95 2 35.6 67 -3.6 25.5
20:15 1016 30 845 24.95 1.8 35.2 65 -4 24.7
20:20 1016 30 845 24.95 1.6 34.8 80 -1.5 29.4
20:25 1016 30 846 24.98 0.6 33 87 -1.4 29.5
20:30 1016 30 846 24.98 0 32 90 -1.4 29.5
20:35 1016 30 846 24.98 -0.2 31.6 92 -1.4 29.5
20:40 1016 30 845 24.95 -0.3 31.5 93 -1.3 29.6
20:45 1016 30 845 24.95 -0.3 31.5 93 -1.3 29.7
20:50 1016 30 845 24.95 -0.3 31.5 93 -1.2 29.8
20:55 1016 30 845 24.95 -0.3 31.5 93 -1.3 29.7
21:00 1016 30 845 24.95 -0.4 31.4 93 -1.4 29.6
21:05 1016 30 845 24.95 -0.4 31.3 93 -1.4 29.5
21:10 1016 30 845 24.95 -0.6 30.9 93 -1.6 29.2
21:15 1016 30 845 24.95 -0.7 30.8 94 -1.6 29.2
21:20 1016 30 845 24.95 -0.7 30.8 94 -1.6 29.2
21:25 1016 30 845 24.95 -0.7 30.8 93 -1.6 29.1
21:30 1016 30 845 24.95 -0.7 30.8 93 -1.7 29
21:35 1016 30 845 24.95 -0.7 30.8 92 -1.8 28.8
21:40 1016 30 845 24.95 -0.6 30.8 92 -1.8 28.7
21:45 1016 30 845 24.95 -0.6 30.9 92 -1.8 28.8
21:50 1016 30 845 24.95 -0.6 31 91 -1.8 28.7
21:55 1016 30 845 24.95 -0.4 31.2 90 -1.9 28.6
22:00 1016 30 845 24.95 -0.4 31.3 89 -2.1 28.3
22:05 1016 30 845 24.95 -0.5 31.2 89 -2 28.4
22:10 1016 30 845 24.95 -0.5 31.1 91 -1.8 28.7
22:15 1016 30 846 24.98 -0.6 30.9 92 -1.8 28.8
22:20 1016 30 846 24.98 -0.7 30.7 93 -1.7 28.9
22:25 1016 30 845 24.95 -0.8 30.5 94 -1.7 28.9
22:30 1016 30 845 24.95 -0.8 30.6 94 -1.7 29
22:35 1016 30 846 24.98 -0.8 30.5 94 -1.7 28.9
22:40 1016 30 846 24.98 -0.8 30.6 94 -1.7 29
22:45 1016 30 846 24.98 -0.8 30.6 94 -1.7 29
22:50 1016 30 846 24.98 -0.7 30.7 93 -1.7 28.9
22:55 1016 30 846 24.98 -0.7 30.7 93 -1.7 29
23:00 1016 30 846 24.98 -0.7 30.8 93 -1.6 29.1
23:05 1016 30 846 24.98 -0.7 30.8 93 -1.7 29
23:10 1016 30 845 24.95 -0.7 30.8 93 -1.7 28.9
23:15 1016 30 845 24.95 -0.7 30.7 93 -1.7 28.9
23:20 1016 30 845 24.95 -0.8 30.6 93 -1.7 28.9
23:25 1016 30 845 24.95 -0.7 30.7 93 -1.7 28.9
23:30 1016 30 845 24.95 -0.7 30.7 93 -1.7 28.9
23:35 1016 30 845 24.95 -0.8 30.5 93 -1.8 28.8
23:40 1016 30 845 24.95 -0.9 30.4 93 -1.8 28.7
23:45 1016 30 845 24.95 -0.9 30.4 93 -1.8 28.7
23:50 1016 30 845 24.95 -0.9 30.4 94 -1.8 28.7
23:55 1016 30 845 24.95 -0.9 30.4 94 -1.8 28.8
24:00 1016 30 845 24.95 -1 30.2 93 -1.9 28.5